Time;durP1;ratioP1;P1;durP2;ratioP2;P2;SDS_P1;SDS_P2;PMS_P1;PMS_P2;Temp;Humidity;BMP_temperature;BMP_pressure;BME280_temperature;BME280_humidity;BME280_pressure;Samples;Min_cycle;Max_cycle;Signal;HPM_P1;HPM_P2
2021/03/24 00:00:47;;;;;;;19.57;13.37;;;;;;;2.41;78.97;97567.16;5010556;28;20179;-67
2021/03/24 00:03:13;;;;;;;19.10;12.97;;;;;;;2.41;78.84;97567.16;4993616;28;20198;-67
2021/03/24 00:05:50;;;;;;;19.63;12.37;;;;;;;2.39;79.18;97565.72;4976550;28;20175;-67
2021/03/24 00:08:18;;;;;;;17.70;13.00;;;;;;;2.27;79.47;97565.19;4993711;28;20523;-69
2021/03/24 00:10:44;;;;;;;19.27;13.90;;;;;;;2.38;79.21;97562.31;5010177;28;21042;-67
2021/03/24 00:13:10;;;;;;;20.40;13.00;;;;;;;2.29;79.49;97563.22;5010952;28;20184;-68
2021/03/24 00:15:35;;;;;;;16.10;12.60;;;;;;;2.31;78.99;97563.06;5010112;28;20183;-67
2021/03/24 00:18:03;;;;;;;21.30;13.47;;;;;;;2.30;79.36;97561.44;4993736;28;20186;-67
2021/03/24 00:20:33;;;;;;;18.77;12.13;;;;;;;2.21;80.15;97560.63;5010131;28;20218;-68
2021/03/24 00:22:59;;;;;;;18.90;13.33;;;;;;;2.16;79.69;97556.88;5010262;28;20186;-68
2021/03/24 00:25:26;;;;;;;17.53;12.73;;;;;;;2.14;80.04;97558.78;5010207;28;20569;-70
2021/03/24 00:27:52;;;;;;;18.47;12.63;;;;;;;2.07;80.71;97562.00;5011420;28;20182;-67
2021/03/24 00:30:33;;;;;;;18.93;13.13;;;;;;;2.06;80.99;97564.75;5011017;28;20677;-67
2021/03/24 00:32:59;;;;;;;22.30;13.67;;;;;;;2.00;81.69;97555.84;4993672;28;20267;-67
2021/03/24 00:35:26;;;;;;;18.40;12.37;;;;;;;2.05;81.44;97558.78;4992359;28;20359;-69
2021/03/24 00:37:51;;;;;;;19.33;13.77;;;;;;;1.89;81.71;97561.28;5010995;28;20184;-67
2021/03/24 00:40:29;;;;;;;22.90;12.73;;;;;;;2.01;80.81;97560.03;4992637;28;20316;-67
2021/03/24 00:42:54;;;;;;;18.27;13.27;;;;;;;2.06;81.47;97560.38;5010985;28;20527;-67
2021/03/24 00:45:20;;;;;;;22.47;13.10;;;;;;;1.98;81.46;97562.13;4993080;28;20696;-67
2021/03/24 00:47:46;;;;;;;20.50;13.00;;;;;;;1.94;81.31;97547.88;5010333;28;20229;-68
2021/03/24 00:50:21;;;;;;;18.57;13.10;;;;;;;1.90;81.50;97554.31;5010173;28;20580;-67
2021/03/24 00:52:46;;;;;;;19.70;12.80;;;;;;;1.88;81.09;97551.09;5009890;28;20183;-68
2021/03/24 00:55:13;;;;;;;19.10;13.30;;;;;;;1.96;81.39;97543.34;5013278;28;20213;-68
2021/03/24 00:57:38;;;;;;;16.07;12.17;;;;;;;1.76;82.08;97550.53;4995684;28;20180;-67
2021/03/24 01:00:19;;;;;;;19.83;13.37;;;;;;;1.69;82.37;97549.50;4996422;28;20261;-68
2021/03/24 01:02:45;;;;;;;18.53;13.33;;;;;;;1.68;82.48;97547.88;5013742;28;20182;-67
2021/03/24 01:05:14;;;;;;;18.67;13.70;;;;;;;1.72;82.69;97549.22;4996258;28;20257;-67
2021/03/24 01:07:42;;;;;;;18.30;12.43;;;;;;;1.74;81.88;97544.69;4995811;28;20175;-67
2021/03/24 01:10:13;;;;;;;21.57;13.23;;;;;;;1.71;82.45;97542.44;5014270;28;20217;-67
2021/03/24 01:12:39;;;;;;;18.97;12.67;;;;;;;1.63;82.65;97544.94;5013456;28;20175;-67
2021/03/24 01:15:06;;;;;;;21.30;13.80;;;;;;;1.80;82.61;97540.69;4996222;28;20355;-67
2021/03/24 01:17:32;;;;;;;19.67;12.97;;;;;;;1.78;81.91;97542.63;5013296;28;20175;-69
2021/03/24 01:19:57;;;;;;;21.53;13.10;;;;;;;1.76;82.61;97539.38;5013907;28;20182;-68
2021/03/24 01:22:22;;;;;;;23.30;13.13;;;;;;;1.61;83.11;97536.56;5013777;28;20508;-70
2021/03/24 01:24:48;;;;;;;16.07;12.20;;;;;;;1.54;82.92;97536.34;5012945;28;20219;-68
2021/03/24 01:27:13;;;;;;;22.63;14.43;;;;;;;1.56;83.05;97536.97;4995913;28;20186;-68
2021/03/24 01:29:38;;;;;;;16.97;12.17;;;;;;;1.58;83.24;97529.91;5012292;28;20180;-69
2021/03/24 01:32:05;;;;;;;17.40;12.50;;;;;;;1.53;83.14;97539.06;5013578;28;20234;-68
2021/03/24 01:34:30;;;;;;;18.37;13.20;;;;;;;1.57;83.42;97538.59;5012616;28;20190;-68
2021/03/24 01:36:55;;;;;;;18.67;13.47;;;;;;;1.61;82.79;97523.63;5013629;28;20179;-68
2021/03/24 01:39:21;;;;;;;17.70;12.67;;;;;;;1.54;83.50;97520.84;5013375;28;20526;-68
2021/03/24 01:41:46;;;;;;;18.27;13.43;;;;;;;1.55;84.08;97516.50;5012542;28;20187;-68
2021/03/24 01:44:11;;;;;;;16.13;11.83;;;;;;;1.56;83.88;97518.13;5012839;28;20281;-69
2021/03/24 01:46:42;;;;;;;18.13;13.07;;;;;;;1.52;83.60;97511.63;5012441;28;20179;-68
2021/03/24 01:49:19;;;;;;;19.00;13.13;;;;;;;1.72;83.23;97517.41;5013242;28;20215;-68
2021/03/24 01:51:53;;;;;;;19.30;12.40;;;;;;;1.77;82.88;97517.75;5012789;28;20190;-68
2021/03/24 01:54:23;;;;;;;17.50;12.67;;;;;;;1.65;82.63;97512.03;5012805;28;20248;-68
2021/03/24 01:56:55;;;;;;;19.23;12.93;;;;;;;1.63;83.31;97511.34;5012359;28;20231;-67
2021/03/24 01:59:20;;;;;;;21.90;13.63;;;;;;;1.57;83.97;97499.06;5013308;28;20175;-68
2021/03/24 02:01:46;;;;;;;21.67;13.23;;;;;;;1.70;83.39;97499.47;5012519;28;20554;-67
2021/03/24 02:04:11;;;;;;;18.30;11.87;;;;;;;1.58;83.08;97505.84;5013041;28;20209;-68
2021/03/24 02:07:00;;;;;;;22.57;13.00;;;;;;;1.60;83.47;97504.75;5011446;28;20183;-68
2021/03/24 02:09:42;;;;;;;17.30;12.10;;;;;;;1.57;83.69;97504.22;4995705;28;20226;-69
2021/03/24 02:12:14;;;;;;;18.30;12.60;;;;;;;1.63;84.18;97508.78;5012833;28;20171;-68
2021/03/24 02:14:47;;;;;;;17.00;12.10;;;;;;;1.59;83.17;97510.88;4994400;28;20539;-69
2021/03/24 02:17:16;;;;;;;22.67;12.43;;;;;;;1.62;82.80;97512.31;4998346;28;20171;-68
2021/03/24 02:20:10;;;;;;;18.13;12.67;;;;;;;1.51;83.38;97508.22;4994272;28;20175;-68
2021/03/24 02:22:42;;;;;;;18.57;13.43;;;;;;;1.52;83.97;97509.84;5011848;28;20634;-68
2021/03/24 02:25:20;;;;;;;18.57;12.20;;;;;;;1.56;83.68;97513.72;5012065;28;20661;-68
2021/03/24 02:27:51;;;;;;;18.50;12.90;;;;;;;1.47;84.08;97506.91;5011908;28;20175;-68
2021/03/24 02:30:25;;;;;;;19.80;12.20;;;;;;;1.45;83.47;97502.88;5012401;28;20179;-68
2021/03/24 02:32:59;;;;;;;17.97;11.80;;;;;;;1.45;83.84;97501.06;5012266;28;20175;-68
2021/03/24 02:35:30;;;;;;;20.57;12.47;;;;;;;1.44;84.09;97509.81;5011641;28;20306;-69
2021/03/24 02:37:59;;;;;;;19.23;13.60;;;;;;;1.41;84.62;97502.34;5012505;28;20167;-68
2021/03/24 02:40:27;;;;;;;21.87;12.77;;;;;;;1.50;84.19;97505.81;5011653;28;20646;-70
2021/03/24 02:42:53;;;;;;;20.60;12.90;;;;;;;1.39;83.90;97506.88;4994541;28;20638;-68
2021/03/24 02:45:24;;;;;;;18.17;13.10;;;;;;;1.36;84.38;97494.25;5011863;28;20191;-68
2021/03/24 02:47:51;;;;;;;17.67;12.57;;;;;;;1.40;84.03;97512.81;4994091;28;20330;-69
2021/03/24 02:50:18;;;;;;;22.47;14.20;;;;;;;1.27;84.05;97507.25;5012357;28;20176;-68
2021/03/24 02:52:44;;;;;;;18.17;13.23;;;;;;;1.15;84.95;97501.53;5011455;28;20183;-69
2021/03/24 02:55:12;;;;;;;19.10;13.30;;;;;;;1.11;84.76;97501.03;5011608;28;20225;-68
2021/03/24 02:57:38;;;;;;;20.37;12.90;;;;;;;1.17;85.06;97504.78;4993394;28;20186;-68
2021/03/24 03:00:07;;;;;;;20.47;13.73;;;;;;;1.14;84.89;97508.44;5012008;28;20179;-69
2021/03/24 03:02:37;;;;;;;23.27;14.63;;;;;;;1.14;84.51;97505.88;4994032;28;20274;-69
2021/03/24 03:05:10;;;;;;;20.63;13.37;;;;;;;1.08;84.71;97508.22;5011718;28;20234;-69
2021/03/24 03:07:47;;;;;;;21.57;13.63;;;;;;;1.03;85.24;97503.53;4993474;28;20203;-69
2021/03/24 03:10:23;;;;;;;21.17;14.00;;;;;;;1.01;85.49;97495.09;5011730;28;20193;-69
2021/03/24 03:13:26;;;;;;;20.27;13.20;;;;;;;0.88;85.71;97509.38;5011623;28;20181;-68
2021/03/24 03:16:01;;;;;;;17.63;12.50;;;;;;;0.86;85.88;97503.53;5012099;28;20187;-68
2021/03/24 03:18:32;;;;;;;20.00;13.33;;;;;;;0.87;85.48;97502.56;5010840;28;20634;-70
2021/03/24 03:21:04;;;;;;;19.23;13.03;;;;;;;0.86;85.87;97501.75;5010981;28;20176;-69
2021/03/24 03:23:33;;;;;;;22.43;13.13;;;;;;;0.85;86.37;97494.97;5010855;28;20654;-69
2021/03/24 03:26:09;;;;;;;18.00;12.40;;;;;;;0.86;86.77;97496.59;5011634;28;20183;-68
2021/03/24 03:28:40;;;;;;;18.57;13.10;;;;;;;0.91;86.11;97503.91;5010651;28;20175;-68
2021/03/24 03:31:10;;;;;;;20.10;13.20;;;;;;;0.90;86.26;97500.50;4993914;28;20175;-67
2021/03/24 03:33:39;;;;;;;22.03;12.60;;;;;;;0.87;86.34;97508.56;4992806;28;20203;-68
2021/03/24 03:36:06;;;;;;;20.03;13.40;;;;;;;0.83;86.87;97508.03;5011710;28;20701;-68
2021/03/24 03:38:33;;;;;;;19.40;13.00;;;;;;;0.80;87.03;97512.66;5010893;28;20269;-68
2021/03/24 03:41:01;;;;;;;19.60;12.60;;;;;;;0.90;86.55;97503.09;5011499;28;20191;-67
2021/03/24 03:43:27;;;;;;;20.57;13.40;;;;;;;0.84;87.02;97504.47;5010802;28;20203;-69
2021/03/24 03:45:55;;;;;;;20.37;12.70;;;;;;;0.89;87.40;97501.47;5011593;28;20237;-68
2021/03/24 03:48:21;;;;;;;20.13;12.43;;;;;;;0.92;87.19;97498.59;5011305;28;20183;-68
2021/03/24 03:50:55;;;;;;;20.87;13.50;;;;;;;1.08;86.14;97497.91;5010757;28;20186;-68
2021/03/24 03:53:32;;;;;;;23.67;13.87;;;;;;;1.04;86.81;97500.00;4992826;28;20221;-68
2021/03/24 03:56:00;;;;;;;21.40;13.90;;;;;;;0.92;87.00;97495.19;4993424;28;20223;-68
2021/03/24 03:58:46;;;;;;;20.50;13.60;;;;;;;0.92;87.39;97495.19;5010537;28;20190;-71
2021/03/24 04:01:24;;;;;;;21.30;13.57;;;;;;;0.86;87.30;97496.59;5011167;28;20187;-68
2021/03/24 04:04:16;;;;;;;22.77;14.23;;;;;;;0.98;86.79;97490.25;5010905;28;20194;-68
2021/03/24 04:06:47;;;;;;;23.33;14.10;;;;;;;0.97;86.42;97491.22;5010671;28;20202;-68
2021/03/24 04:09:13;;;;;;;22.13;14.00;;;;;;;0.91;86.58;97486.66;5011457;28;20172;-68
2021/03/24 04:11:46;;;;;;;19.67;13.20;;;;;;;0.75;87.39;97491.66;4992772;28;20210;-68
2021/03/24 04:14:17;;;;;;;19.27;14.03;;;;;;;0.67;87.55;97492.41;4993503;28;20187;-68
2021/03/24 04:16:45;;;;;;;18.47;12.87;;;;;;;0.67;87.69;97486.44;5010198;28;20203;-68
2021/03/24 04:19:16;;;;;;;18.03;12.37;;;;;;;0.69;87.75;97484.53;5010964;28;20242;-68
2021/03/24 04:21:45;;;;;;;19.30;13.13;;;;;;;0.72;87.95;97491.97;5009792;28;20180;-68
2021/03/24 04:24:27;;;;;;;20.00;12.90;;;;;;;0.72;87.57;97485.06;5010782;28;20204;-68
2021/03/24 04:26:57;;;;;;;22.77;12.83;;;;;;;0.67;87.69;97486.44;4997579;28;20176;-68
2021/03/24 04:29:37;;;;;;;21.27;13.23;;;;;;;0.62;87.82;97483.47;5013102;28;20182;-70
2021/03/24 04:32:04;;;;;;;20.30;12.83;;;;;;;0.56;88.08;97497.78;4997028;28;20564;-68
2021/03/24 04:34:31;;;;;;;20.97;13.13;;;;;;;0.66;88.21;97493.38;5013969;28;20260;-68
2021/03/24 04:37:20;;;;;;;20.20;13.53;;;;;;;0.60;87.93;97496.53;5015064;28;20190;-67
2021/03/24 04:39:57;;;;;;;19.93;13.20;;;;;;;0.69;87.30;97498.22;4998828;28;20175;-67
2021/03/24 04:42:31;;;;;;;20.00;12.50;;;;;;;0.61;86.97;97499.94;5014620;28;20179;-69
2021/03/24 04:45:01;;;;;;;20.50;13.13;;;;;;;0.59;86.50;97500.06;5014653;28;20195;-68
2021/03/24 04:47:33;;;;;;;20.20;13.37;;;;;;;0.49;86.63;97506.25;5013739;28;20183;-69
2021/03/24 04:50:07;;;;;;;18.33;12.47;;;;;;;0.29;87.38;97502.97;5014390;28;20175;-68
2021/03/24 04:52:35;;;;;;;19.70;12.30;;;;;;;0.15;87.83;97504.28;4979441;28;20187;-68
2021/03/24 04:55:08;;;;;;;18.67;12.70;;;;;;;0.05;88.35;97506.09;5013855;28;20187;-66
2021/03/24 04:57:35;;;;;;;19.37;12.60;;;;;;;-0.01;88.28;97514.41;4996064;28;20187;-68
2021/03/24 05:00:07;;;;;;;21.13;12.70;;;;;;;-0.05;88.62;97505.31;5014003;28;20258;-67
2021/03/24 05:02:35;;;;;;;19.97;12.63;;;;;;;0.10;88.29;97506.47;5004801;28;20175;-68
2021/03/24 05:05:05;;;;;;;17.83;12.70;;;;;;;0.00;88.19;97503.94;5013901;28;20282;-67
2021/03/24 05:07:44;;;;;;;20.40;13.23;;;;;;;0.03;88.54;97504.59;5011859;28;20179;-67
2021/03/24 05:10:23;;;;;;;19.83;12.90;;;;;;;-0.03;88.47;97511.13;5014190;28;20201;-67
2021/03/24 05:13:00;;;;;;;22.10;13.13;;;;;;;0.08;88.21;97505.81;5013610;28;20187;-67
2021/03/24 05:15:34;;;;;;;23.67;13.17;;;;;;;-0.02;88.83;97513.59;5013180;28;20213;-70
2021/03/24 05:18:03;;;;;;;20.50;13.60;;;;;;;-0.06;89.12;97508.88;5013612;28;20182;-67
2021/03/24 05:20:46;;;;;;;23.43;12.87;;;;;;;-0.02;88.48;97508.44;5012854;28;20183;-67
2021/03/24 05:23:18;;;;;;;20.50;13.40;;;;;;;-0.02;88.22;97508.44;5014149;28;20217;-67
2021/03/24 05:25:54;;;;;;;18.63;12.73;;;;;;;-0.08;88.53;97514.16;5012609;28;20183;-67
2021/03/24 05:28:41;;;;;;;19.50;12.30;;;;;;;0.00;88.19;97521.97;5013605;28;20173;-67
2021/03/24 05:31:14;;;;;;;21.27;13.03;;;;;;;-0.05;88.57;97521.59;5013304;28;20207;-67
2021/03/24 05:33:46;;;;;;;19.00;12.93;;;;;;;0.07;88.59;97519.63;5012935;28;20249;-67
2021/03/24 05:36:20;;;;;;;20.97;12.87;;;;;;;0.27;87.93;97513.44;5013504;28;20183;-68
2021/03/24 05:38:49;;;;;;;19.70;13.00;;;;;;;0.37;87.28;97511.63;5003808;28;20255;-67
2021/03/24 05:41:34;;;;;;;19.93;13.20;;;;;;;0.42;87.05;97518.91;5013308;28;20183;-68
2021/03/24 05:44:31;;;;;;;17.23;12.13;;;;;;;0.59;86.57;97512.97;4998243;28;20249;-67
2021/03/24 05:47:27;;;;;;;19.37;13.07;;;;;;;0.70;85.29;97519.69;4995856;28;20183;-67
2021/03/24 05:49:55;;;;;;;17.87;12.83;;;;;;;0.72;85.38;97520.34;5012542;28;20172;-68
2021/03/24 05:52:49;;;;;;;19.37;12.97;;;;;;;0.77;86.07;97521.53;4995201;28;20194;-68
2021/03/24 05:55:27;;;;;;;19.00;12.73;;;;;;;1.08;84.95;97521.94;5001776;28;20234;-68
2021/03/24 05:58:24;;;;;;;18.83;13.13;;;;;;;1.24;84.51;97526.44;5013386;28;20303;-68
2021/03/24 06:01:01;;;;;;;19.10;12.17;;;;;;;1.42;84.09;97531.56;5012246;28;20267;-68
2021/03/24 06:03:51;;;;;;;16.00;11.70;;;;;;;1.48;82.84;97538.72;5012743;28;20190;-71
2021/03/24 06:06:38;;;;;;;19.27;12.03;;;;;;;1.66;82.85;97529.16;5012528;28;20693;-68
2021/03/24 06:09:26;;;;;;;16.87;12.67;;;;;;;1.90;81.11;97534.44;4997430;28;20171;-68
2021/03/24 06:12:25;;;;;;;18.57;12.43;;;;;;;2.10;80.80;97529.88;4966549;28;20278;-68
2021/03/24 06:15:28;;;;;;;18.13;12.53;;;;;;;2.20;80.51;97534.91;5002627;28;20172;-68
2021/03/24 06:18:06;;;;;;;18.67;12.60;;;;;;;2.37;79.34;97537.41;4999717;28;20656;-70
2021/03/24 06:21:06;;;;;;;16.63;11.97;;;;;;;2.34;80.00;97535.13;5001697;28;20176;-68
2021/03/24 06:23:37;;;;;;;17.50;12.27;;;;;;;2.36;79.64;97535.78;5000929;28;20227;-65
2021/03/24 06:26:39;;;;;;;17.63;12.30;;;;;;;2.46;80.10;97535.63;4998295;28;20168;-66
2021/03/24 06:29:24;;;;;;;16.83;12.67;;;;;;;2.85;78.92;97539.28;5007007;28;20182;-67
2021/03/24 06:31:49;;;;;;;19.50;12.50;;;;;;;3.04;77.61;97535.59;5011918;28;20237;-66
2021/03/24 06:34:27;;;;;;;15.13;11.70;;;;;;;3.16;77.71;97542.09;5012438;28;20195;-67
2021/03/24 06:37:13;;;;;;;19.67;12.67;;;;;;;3.33;76.53;97538.53;5002821;28;20475;-66
2021/03/24 06:39:54;;;;;;;17.63;12.77;;;;;;;3.42;76.32;97538.53;5011644;28;20175;-67
2021/03/24 06:42:32;;;;;;;16.63;12.47;;;;;;;3.41;75.25;97537.69;5006464;28;20237;-66
2021/03/24 06:45:06;;;;;;;18.33;12.13;;;;;;;3.37;74.37;97539.00;5011461;28;20257;-67
2021/03/24 06:47:46;;;;;;;15.10;12.30;;;;;;;3.41;75.28;97549.84;5011351;28;20251;-67
2021/03/24 06:50:24;;;;;;;20.23;12.13;;;;;;;3.44;74.99;97545.16;4993697;28;20229;-67
2021/03/24 06:53:07;;;;;;;15.93;12.03;;;;;;;3.36;74.73;97552.94;5010380;28;20642;-67
2021/03/24 06:55:54;;;;;;;18.97;13.90;;;;;;;3.57;73.97;97558.41;5010654;28;20214;-67
2021/03/24 06:58:28;;;;;;;19.23;12.33;;;;;;;3.71;73.57;97562.16;4997431;28;20258;-68
2021/03/24 07:01:05;;;;;;;18.13;12.93;;;;;;;3.88;73.38;97558.56;4994189;28;20183;-67
2021/03/24 07:03:49;;;;;;;19.50;13.17;;;;;;;4.04;72.97;97562.88;5011569;28;20269;-68
2021/03/24 07:06:33;;;;;;;16.60;12.80;;;;;;;4.15;73.02;97545.19;5011901;28;20175;-68
2021/03/24 07:09:07;;;;;;;16.07;12.60;;;;;;;4.34;72.37;97551.78;5011496;28;20619;-66
2021/03/24 07:12:02;;;;;;;16.13;12.30;;;;;;;4.35;71.79;97555.97;5011353;28;20203;-67
2021/03/24 07:15:02;;;;;;;19.87;12.67;;;;;;;4.44;71.97;97542.00;4990134;28;20274;-69
2021/03/24 07:18:03;;;;;;;18.63;12.93;;;;;;;4.64;71.26;97549.34;5010845;28;20171;-69
2021/03/24 07:20:57;;;;;;;17.90;13.00;;;;;;;4.60;71.45;97548.88;5010131;28;20270;-67
2021/03/24 07:23:34;;;;;;;19.20;13.43;;;;;;;4.50;71.78;97556.09;5004796;28;20195;-67
2021/03/24 07:26:45;;;;;;;19.93;12.97;;;;;;;4.69;71.50;97555.66;5008514;28;20179;-67
2021/03/24 07:29:34;;;;;;;16.57;12.70;;;;;;;4.85;71.39;97560.75;5005459;28;20520;-67
2021/03/24 07:32:15;;;;;;;17.87;13.00;;;;;;;5.06;70.45;97561.94;4996750;28;20183;-66
2021/03/24 07:35:29;;;;;;;18.70;13.07;;;;;;;5.18;70.18;97563.97;5010693;28;20582;-66
2021/03/24 07:38:05;;;;;;;16.43;12.00;;;;;;;5.34;69.69;97565.63;4984896;28;20191;-67
2021/03/24 07:40:52;;;;;;;16.50;12.90;;;;;;;5.37;69.18;97558.28;5000145;28;20630;-66
2021/03/24 07:43:59;;;;;;;15.50;12.97;;;;;;;5.49;68.78;97563.06;5011462;28;20175;-66
2021/03/24 07:47:02;;;;;;;19.93;13.37;;;;;;;5.42;69.97;97561.16;4988328;28;20203;-67
2021/03/24 07:49:50;;;;;;;17.07;13.10;;;;;;;5.44;69.27;97567.03;4911624;29;20265;-69
2021/03/24 07:52:24;;;;;;;17.27;12.50;;;;;;;5.63;68.59;97575.31;5004488;28;20217;-66
2021/03/24 07:55:03;;;;;;;17.13;13.53;;;;;;;5.71;68.97;97570.03;5009780;28;20178;-66
2021/03/24 07:57:42;;;;;;;16.33;13.37;;;;;;;5.81;68.26;97575.78;5010742;28;20191;-69
2021/03/24 08:00:18;;;;;;;22.80;12.87;;;;;;;5.83;67.64;97573.81;5010845;28;20622;-67
2021/03/24 08:03:07;;;;;;;18.30;13.07;;;;;;;5.88;68.08;97579.34;5003104;28;20170;-67
2021/03/24 08:06:18;;;;;;;17.13;12.80;;;;;;;6.18;68.36;97574.97;5013792;28;20248;-66
2021/03/24 08:08:46;;;;;;;19.93;12.33;;;;;;;6.37;68.09;97577.03;4906900;29;20246;-66
2021/03/24 08:11:40;;;;;;;19.93;12.97;;;;;;;6.46;67.19;97564.75;4915586;29;20321;-66
2021/03/24 08:14:45;;;;;;;17.83;13.20;;;;;;;6.56;66.21;97567.84;4915827;29;20745;-68
2021/03/24 08:17:41;;;;;;;20.90;12.77;;;;;;;6.54;66.23;97562.00;4907809;29;20180;-66
2021/03/24 08:20:25;;;;;;;20.97;13.13;;;;;;;6.49;66.10;97562.56;4915437;29;20195;-66
2021/03/24 08:23:01;;;;;;;21.33;13.50;;;;;;;6.55;66.23;97564.44;4914712;29;20268;-66
2021/03/24 08:25:38;;;;;;;18.53;13.67;;;;;;;6.57;65.28;97565.09;4915409;29;20202;-69
2021/03/24 08:28:24;;;;;;;20.03;14.50;;;;;;;6.53;65.85;97557.78;4915855;29;20254;-66
2021/03/24 08:31:05;;;;;;;19.57;13.80;;;;;;;6.65;65.84;97559.75;4914621;29;20182;-67
2021/03/24 08:33:44;;;;;;;18.50;13.57;;;;;;;6.61;65.25;97558.50;4915185;29;20205;-69
2021/03/24 08:36:30;;;;;;;19.53;13.53;;;;;;;6.68;65.40;97559.41;4915400;29;20186;-66
2021/03/24 08:38:59;;;;;;;19.47;13.90;;;;;;;6.78;64.41;97564.31;4946875;28;20213;-67
2021/03/24 08:41:36;;;;;;;18.40;13.10;;;;;;;6.84;63.63;97565.38;4999422;28;20183;-67
2021/03/24 08:44:25;;;;;;;19.33;13.13;;;;;;;6.91;63.37;97564.44;5014686;28;20239;-66
2021/03/24 08:46:59;;;;;;;19.77;13.50;;;;;;;7.06;62.60;97569.63;5013624;28;20186;-67
2021/03/24 08:49:28;;;;;;;18.90;13.03;;;;;;;7.10;63.32;97563.88;5000021;28;20277;-67
2021/03/24 08:52:12;;;;;;;19.00;14.10;;;;;;;7.18;63.33;97568.16;5013242;28;20261;-66
2021/03/24 08:55:02;;;;;;;18.57;14.07;;;;;;;7.31;63.52;97565.66;5013018;28;20171;-66
2021/03/24 08:58:03;;;;;;;17.17;12.83;;;;;;;7.40;63.01;97567.16;5012381;28;20227;-69
2021/03/24 09:00:42;;;;;;;20.13;13.83;;;;;;;7.38;63.59;97565.72;4913743;29;20202;-70
2021/03/24 09:03:38;;;;;;;17.93;12.90;;;;;;;7.44;62.63;97562.38;5002268;28;20187;-66
2021/03/24 09:06:30;;;;;;;19.77;14.30;;;;;;;7.44;62.54;97562.38;4994753;28;20218;-66
2021/03/24 09:09:19;;;;;;;19.47;13.87;;;;;;;7.39;63.61;97559.53;5008979;28;20174;-66
2021/03/24 09:12:11;;;;;;;18.20;13.77;;;;;;;7.39;64.10;97560.31;4983123;28;20211;-66
2021/03/24 09:14:42;;;;;;;18.57;13.17;;;;;;;7.43;63.60;97564.16;5012460;28;20175;-66
2021/03/24 09:17:45;;;;;;;18.00;13.00;;;;;;;7.53;63.13;97564.66;5013692;28;20191;-66
2021/03/24 09:20:32;;;;;;;17.37;13.13;;;;;;;7.53;63.42;97554.22;5002570;28;20203;-66
2021/03/24 09:23:18;;;;;;;18.60;14.20;;;;;;;7.46;63.90;97550.78;5013808;28;20246;-66
2021/03/24 09:26:24;;;;;;;19.90;13.20;;;;;;;7.38;63.41;97558.72;4997820;28;20526;-66
2021/03/24 09:29:11;;;;;;;20.50;13.47;;;;;;;7.39;63.93;97555.13;5013129;28;20202;-66
2021/03/24 09:32:00;;;;;;;20.10;13.20;;;;;;;7.49;64.08;97554.78;5012654;28;20179;-66
2021/03/24 09:35:01;;;;;;;18.90;13.40;;;;;;;7.53;62.47;97556.03;5013392;28;20229;-70
2021/03/24 09:37:35;;;;;;;16.57;12.37;;;;;;;7.52;62.73;97551.81;5012906;28;20250;-70
2021/03/24 09:40:07;;;;;;;17.53;12.43;;;;;;;7.53;61.88;97549.00;5013223;28;20172;-66
2021/03/24 09:42:36;;;;;;;18.67;13.13;;;;;;;7.56;62.00;97547.84;5012871;28;20179;-66
2021/03/24 09:45:06;;;;;;;20.17;13.50;;;;;;;7.68;61.95;97548.94;5013506;28;20202;-66
2021/03/24 09:47:48;;;;;;;20.23;12.30;;;;;;;7.73;63.24;97551.78;5011916;28;20626;-69
2021/03/24 09:50:13;;;;;;;19.27;13.27;;;;;;;7.60;62.59;97548.25;5013037;28;20782;-67
2021/03/24 09:52:57;;;;;;;18.57;13.43;;;;;;;7.77;62.50;97544.38;5011648;28;20195;-67
2021/03/24 09:55:41;;;;;;;17.93;12.67;;;;;;;7.84;62.20;97534.78;5011691;28;20213;-67
2021/03/24 09:58:22;;;;;;;18.87;12.77;;;;;;;7.85;62.28;97541.63;5006677;28;20545;-68
2021/03/24 10:01:23;;;;;;;17.93;12.33;;;;;;;7.91;62.47;97540.88;5011901;28;20175;-67
2021/03/24 10:04:19;;;;;;;19.23;12.83;;;;;;;7.92;62.67;97532.84;5012133;28;20333;-66
2021/03/24 10:07:04;;;;;;;17.43;12.33;;;;;;;8.11;61.58;97536.56;5011754;28;20183;-66
2021/03/24 10:09:42;;;;;;;16.10;11.80;;;;;;;8.01;60.84;97528.28;5012164;28;20171;-70
2021/03/24 10:12:19;;;;;;;16.37;11.67;;;;;;;8.04;61.71;97529.69;4994863;28;20630;-66
2021/03/24 10:14:47;;;;;;;15.67;11.70;;;;;;;7.85;61.99;97524.19;5002503;28;20179;-66
2021/03/24 10:17:35;;;;;;;18.33;11.80;;;;;;;8.03;62.08;97522.84;5011816;28;20179;-66
2021/03/24 10:20:17;;;;;;;17.53;11.57;;;;;;;8.15;62.11;97522.13;5004738;28;20563;-67
2021/03/24 10:22:48;;;;;;;18.77;12.00;;;;;;;8.37;61.07;97519.44;5010993;28;20183;-67
2021/03/24 10:25:39;;;;;;;18.30;12.17;;;;;;;8.42;61.38;97523.09;5008414;28;20203;-66
2021/03/24 10:28:11;;;;;;;14.60;11.57;;;;;;;8.41;60.46;97524.09;4995429;28;20636;-66
2021/03/24 10:30:43;;;;;;;18.60;12.27;;;;;;;8.48;61.67;97513.66;5011686;28;20175;-67
2021/03/24 10:33:23;;;;;;;19.03;12.53;;;;;;;8.05;62.06;97524.28;5012197;28;20163;-67
2021/03/24 10:36:15;;;;;;;14.97;11.40;;;;;;;8.24;62.71;97514.94;5011287;28;20259;-66
2021/03/24 10:38:43;;;;;;;17.03;11.47;;;;;;;8.42;62.56;97504.78;5011527;28;20179;-66
2021/03/24 10:41:30;;;;;;;16.10;12.57;;;;;;;8.58;61.62;97501.84;5012183;28;20191;-67
2021/03/24 10:44:12;;;;;;;19.37;11.70;;;;;;;8.65;62.08;97496.63;5011888;28;20225;-67
2021/03/24 10:46:58;;;;;;;40.30;37.03;;;;;;;8.77;62.19;97495.88;5005802;28;20179;-67
2021/03/24 10:49:40;;;;;;;14.07;10.80;;;;;;;8.87;60.15;97489.44;4997309;28;20630;-67
2021/03/24 10:52:16;;;;;;;17.03;11.40;;;;;;;8.94;59.96;97488.47;5012362;28;20206;-67
2021/03/24 10:54:41;;;;;;;13.77;10.13;;;;;;;9.03;59.27;97487.28;5010387;28;20206;-67
2021/03/24 10:57:07;;;;;;;12.67;9.17;;;;;;;8.88;59.04;97483.22;5011839;28;20287;-67
2021/03/24 11:00:08;;;;;;;10.53;8.13;;;;;;;8.96;57.31;97486.47;5011224;28;20175;-66
2021/03/24 11:02:44;;;;;;;12.80;8.83;;;;;;;9.08;58.53;97489.31;4909125;29;20190;-67
2021/03/24 11:05:22;;;;;;;12.90;10.73;;;;;;;9.35;57.83;97488.31;4998341;28;20546;-67
2021/03/24 11:08:08;;;;;;;12.50;8.40;;;;;;;9.43;57.22;97484.69;5011150;28;20190;-67
2021/03/24 11:10:57;;;;;;;11.77;8.50;;;;;;;9.35;57.47;97480.47;5010401;28;20254;-67
2021/03/24 11:13:37;;;;;;;12.47;8.57;;;;;;;9.50;57.71;97472.41;5011705;28;20172;-67
2021/03/24 11:16:12;;;;;;;12.37;8.77;;;;;;;9.54;57.24;97471.00;5011528;28;20203;-67
2021/03/24 11:18:44;;;;;;;14.20;9.00;;;;;;;9.57;56.83;97466.16;5010540;28;20174;-67
2021/03/24 11:21:27;;;;;;;12.83;8.90;;;;;;;9.66;56.96;97461.53;5011272;28;20257;-67
2021/03/24 11:24:08;;;;;;;12.67;9.00;;;;;;;9.73;56.92;97462.31;5011752;28;20187;-67
2021/03/24 11:26:44;;;;;;;11.80;8.37;;;;;;;9.72;55.43;97452.84;5010885;28;20171;-68
2021/03/24 11:29:13;;;;;;;13.63;8.13;;;;;;;9.91;55.56;97456.44;5011414;28;20230;-67
2021/03/24 11:31:39;;;;;;;14.20;8.47;;;;;;;9.93;54.66;97451.78;5010835;28;20179;-67
2021/03/24 11:34:07;;;;;;;13.00;9.07;;;;;;;9.92;54.25;97456.22;5012138;28;20182;-67
2021/03/24 11:36:41;;;;;;;16.37;8.57;;;;;;;9.98;54.46;97452.78;5010252;28;20191;-67
2021/03/24 11:39:12;;;;;;;12.73;8.37;;;;;;;10.21;54.65;97452.34;5005741;28;20174;-67
2021/03/24 11:41:40;;;;;;;12.70;8.87;;;;;;;10.34;53.76;97451.47;5010949;28;20178;-67
2021/03/24 11:44:07;;;;;;;16.37;10.23;;;;;;;10.51;53.17;97447.38;5011164;28;20203;-67
2021/03/24 11:46:35;;;;;;;12.43;9.43;;;;;;;10.39;54.08;97449.03;4992133;28;20266;-67
2021/03/24 11:49:22;;;;;;;14.30;9.67;;;;;;;10.18;55.15;97446.72;5011050;28;20175;-67
2021/03/24 11:52:08;;;;;;;12.87;9.43;;;;;;;10.16;54.29;97452.16;5009977;28;20183;-67
2021/03/24 11:54:49;;;;;;;13.90;10.37;;;;;;;9.81;55.61;97446.38;5008312;28;20207;-67
2021/03/24 11:57:37;;;;;;;13.00;9.33;;;;;;;9.65;55.92;97449.44;5011528;28;20674;-67
2021/03/24 12:00:09;;;;;;;16.37;9.73;;;;;;;9.89;55.63;97447.97;5010219;28;20210;-67
2021/03/24 12:03:01;;;;;;;14.57;8.77;;;;;;;9.89;55.71;97448.78;5009630;28;20179;-67
2021/03/24 12:05:41;;;;;;;13.70;9.10;;;;;;;10.04;55.15;97438.06;5009613;28;20206;-70
2021/03/24 12:08:31;;;;;;;14.33;9.60;;;;;;;10.16;55.04;97438.22;5011142;28;20193;-67
2021/03/24 12:11:16;;;;;;;12.47;9.33;;;;;;;10.11;54.81;97436.22;4974617;28;20192;-67